Time;durP1;ratioP1;P1;durP2;ratioP2;P2;SDS_P1;SDS_P2;PMS_P1;PMS_P2;Temp;Humidity;BMP_temperature;BMP_pressure;BME280_temperature;BME280_humidity;BME280_pressure;Samples;Min_cycle;Max_cycle;Signal;HPM_P1;HPM_P2
2021/12/25 00:01:08;;;;;;;22.83;20.47;;;30.10;99.90;;;;;;5003500;28;20550;-69
2021/12/25 00:03:37;;;;;;;4.00;2.17;;;30.60;99.90;;;;;;5011325;28;20213;-68
2021/12/25 00:06:05;;;;;;;4.43;2.42;;;30.80;99.90;;;;;;5012405;28;20228;-69
2021/12/25 00:08:33;;;;;;;4.47;1.60;;;30.80;99.90;;;;;;5000939;28;20201;-69
2021/12/25 00:11:04;;;;;;;5.50;2.13;;;31.20;99.90;;;;;;5004788;28;20190;-69
2021/12/25 00:13:32;;;;;;;9.25;1.60;;;31.20;99.90;;;;;;4994427;28;20194;-69
2021/12/25 00:16:00;;;;;;;3.38;1.63;;;31.50;99.90;;;;;;4997752;28;20178;-70
2021/12/25 00:18:28;;;;;;;5.45;1.83;;;31.50;99.90;;;;;;5012730;28;20178;-69
2021/12/25 00:20:56;;;;;;;4.28;1.98;;;31.50;99.90;;;;;;5008199;28;20181;-67
2021/12/25 00:23:24;;;;;;;4.68;1.88;;;31.50;99.90;;;;;;5004391;28;20181;-69
2021/12/25 00:25:59;;;;;;;4.13;2.05;;;31.70;99.90;;;;;;5006514;28;20244;-68
2021/12/25 00:31:10;;;;;;;4.53;2.00;;;32.10;99.90;;;;;;5008555;28;20663;-67
2021/12/25 00:36:13;;;;;;;4.85;2.00;;;31.40;99.90;;;;;;5012694;28;20647;-68
2021/12/25 00:38:44;;;;;;;17.73;12.70;;;31.90;99.90;;;;;;5008474;28;20541;-69
2021/12/25 00:41:14;;;;;;;8.05;5.00;;;32.10;99.90;;;;;;5016082;28;20186;-69
2021/12/25 00:43:42;;;;;;;129.80;108.20;;;32.30;99.90;;;;;;5010991;28;20186;-69
2021/12/25 00:46:10;;;;;;;25.30;18.77;;;32.20;99.90;;;;;;5010839;28;20217;-71
2021/12/25 00:48:38;;;;;;;4.75;2.90;;;31.90;99.90;;;;;;4995619;28;20186;-71
2021/12/25 00:51:07;;;;;;;12.60;9.82;;;32.30;99.90;;;;;;4994493;28;20180;-71
2021/12/25 00:53:34;;;;;;;9.27;6.22;;;32.40;99.90;;;;;;4994666;28;20547;-71
2021/12/25 00:56:02;;;;;;;3.60;1.60;;;32.70;99.90;;;;;;4994596;28;20217;-71
2021/12/25 00:58:30;;;;;;;13.65;8.82;;;32.50;99.90;;;;;;4994485;28;20262;-71
2021/12/25 01:00:58;;;;;;;3.78;1.27;;;32.60;99.90;;;;;;4977633;28;20182;-71
2021/12/25 01:03:26;;;;;;;3.10;1.60;;;32.60;99.90;;;;;;4995669;28;20625;-71
2021/12/25 01:05:53;;;;;;;3.90;1.70;;;33.00;99.90;;;;;;4996714;28;20214;-71
2021/12/25 01:08:22;;;;;;;2.97;1.40;;;33.10;99.90;;;;;;4996483;28;20174;-72
2021/12/25 01:10:50;;;;;;;3.10;1.73;;;33.00;99.90;;;;;;4996259;28;20692;-71
2021/12/25 01:13:28;;;;;;;3.70;1.75;;;32.80;99.90;;;;;;4978758;28;20182;-71
2021/12/25 01:21:34;;;;;;;2.65;1.67;;;33.40;99.90;;;;;;4996420;28;20229;-71
2021/12/25 01:27:21;;;;;;;3.42;1.50;;;33.30;99.90;;;;;;4973597;28;20294;-71
2021/12/25 01:40:30;;;;;;;5.00;1.80;;;32.70;99.90;;;;;;4995859;28;20186;-70
2021/12/25 01:48:34;;;;;;;3.08;1.52;;;33.50;99.90;;;;;;4995704;28;20205;-71
2021/12/25 01:51:02;;;;;;;3.42;1.20;;;33.90;99.90;;;;;;4995704;28;20524;-71
2021/12/25 01:53:30;;;;;;;3.28;1.25;;;34.10;99.90;;;;;;4995522;28;20266;-71
2021/12/25 01:56:00;;;;;;;2.75;1.40;;;33.30;99.90;;;;;;4995936;28;20258;-71
2021/12/25 01:58:28;;;;;;;6.53;1.50;;;33.50;99.90;;;;;;4978100;28;20232;-71
2021/12/25 02:00:57;;;;;;;3.50;1.42;;;33.50;99.90;;;;;;4995488;28;20174;-71
2021/12/25 02:03:33;;;;;;;3.17;1.10;;;33.90;99.90;;;;;;4995145;28;20228;-71
2021/12/25 02:06:01;;;;;;;2.58;1.23;;;33.90;99.90;;;;;;4995184;28;20202;-71
2021/12/25 02:08:29;;;;;;;1.67;0.88;;;34.30;99.90;;;;;;4995483;28;20198;-71
2021/12/25 02:10:58;;;;;;;4.38;1.50;;;34.30;99.90;;;;;;4977789;28;20712;-71
2021/12/25 02:13:26;;;;;;;4.85;1.52;;;34.30;99.90;;;;;;4995287;28;20209;-72
2021/12/25 02:15:56;;;;;;;4.15;1.30;;;34.40;99.90;;;;;;4995299;28;20572;-70
2021/12/25 02:18:42;;;;;;;2.60;1.40;;;34.40;99.90;;;;;;4995351;28;20183;-71
2021/12/25 02:21:18;;;;;;;2.72;1.23;;;34.80;99.90;;;;;;4995141;28;20185;-69
2021/12/25 02:23:46;;;;;;;3.28;1.55;;;34.80;99.90;;;;;;4995133;28;20184;-70
2021/12/25 02:26:14;;;;;;;4.35;1.33;;;34.50;99.90;;;;;;4995069;28;20214;-70
2021/12/25 02:28:41;;;;;;;6.30;1.42;;;34.20;99.90;;;;;;4995135;28;20183;-70
2021/12/25 02:31:12;;;;;;;1.77;1.33;;;34.40;99.90;;;;;;4993756;28;20226;-70
2021/12/25 02:33:40;;;;;;;3.08;1.20;;;34.30;99.90;;;;;;4993976;28;20269;-70
2021/12/25 02:36:10;;;;;;;2.03;1.00;;;34.70;99.90;;;;;;4993961;28;20179;-72
2021/12/25 02:38:38;;;;;;;3.58;1.20;;;35.50;99.90;;;;;;4994049;28;20171;-69
2021/12/25 02:41:07;;;;;;;4.03;1.10;;;35.60;99.90;;;;;;4993827;28;20249;-72
2021/12/25 02:43:36;;;;;;;2.70;1.42;;;35.90;99.90;;;;;;4993359;28;20175;-72
2021/12/25 02:46:05;;;;;;;2.33;1.20;;;35.80;99.90;;;;;;4993817;28;20766;-71
2021/12/25 02:48:37;;;;;;;3.30;1.25;;;35.10;99.90;;;;;;4976714;28;20267;-71
2021/12/25 02:51:07;;;;;;;4.65;1.30;;;34.60;99.90;;;;;;4995352;28;20217;-71
2021/12/25 02:53:36;;;;;;;1.10;0.93;;;34.60;99.90;;;;;;4995050;28;20607;-71
2021/12/25 02:56:05;;;;;;;3.75;1.45;;;35.00;99.90;;;;;;4993947;28;20213;-71
2021/12/25 02:58:33;;;;;;;2.58;1.30;;;35.20;99.90;;;;;;4993830;28;20175;-72
2021/12/25 03:01:11;;;;;;;1.77;1.30;;;34.90;99.90;;;;;;4993556;28;20187;-71
2021/12/25 03:03:39;;;;;;;4.18;1.33;;;35.50;99.90;;;;;;4993672;28;20261;-72
2021/12/25 03:06:08;;;;;;;3.65;1.38;;;35.50;99.90;;;;;;4993560;28;20237;-72
2021/12/25 03:08:36;;;;;;;1.75;1.25;;;36.00;99.90;;;;;;4993661;28;20222;-71
2021/12/25 03:11:06;;;;;;;4.57;1.40;;;36.10;99.90;;;;;;4975764;28;20208;-72
2021/12/25 03:16:21;;;;;;;2.70;1.35;;;35.40;99.90;;;;;;4993695;28;20241;-71
2021/12/25 03:18:52;;;;;;;3.83;1.30;;;36.00;99.90;;;;;;4975726;28;20190;-72
2021/12/25 03:21:20;;;;;;;2.75;1.42;;;35.70;99.90;;;;;;4993175;28;20167;-71
2021/12/25 03:23:52;;;;;;;3.15;1.13;;;35.40;99.90;;;;;;4993192;28;20174;-71
2021/12/25 03:26:20;;;;;;;3.25;1.45;;;35.70;99.90;;;;;;4993143;28;20217;-71
2021/12/25 03:28:51;;;;;;;6.43;1.33;;;36.00;99.90;;;;;;4993220;28;20178;-71
2021/12/25 03:31:21;;;;;;;4.22;1.80;;;35.00;99.90;;;;;;4858971;28;3907002;-71
2021/12/25 03:33:52;;;;;;;4.57;1.42;;;35.00;99.90;;;;;;4994034;28;20229;-71
2021/12/25 03:36:21;;;;;;;2.10;1.05;;;35.30;99.90;;;;;;4993730;28;20254;-71
2021/12/25 03:38:50;;;;;;;3.33;1.10;;;35.50;99.90;;;;;;4993719;28;20534;-70
2021/12/25 03:41:19;;;;;;;4.30;1.35;;;35.40;99.90;;;;;;4993671;28;20181;-71
2021/12/25 03:43:47;;;;;;;4.13;1.40;;;35.30;99.90;;;;;;4993872;28;20699;-71
2021/12/25 03:46:17;;;;;;;7.50;1.25;;;35.60;99.90;;;;;;4993633;28;20289;-70
2021/12/25 03:59:20;;;;;;;5.85;1.50;;;34.50;99.90;;;;;;4993887;28;20201;-70
2021/12/25 04:01:59;;;;;;;5.13;1.52;;;34.40;99.90;;;;;;4993393;28;20182;-70
2021/12/25 04:04:35;;;;;;;5.18;1.73;;;34.30;99.90;;;;;;4993495;28;20198;-70
2021/12/25 04:07:10;;;;;;;2.75;1.35;;;34.30;99.90;;;;;;4993686;28;20269;-70
2021/12/25 04:09:40;;;;;;;3.47;1.35;;;34.40;99.90;;;;;;4993477;28;20192;-71
2021/12/25 04:12:11;;;;;;;3.83;1.15;;;34.50;99.90;;;;;;4993416;28;20218;-70
2021/12/25 04:14:40;;;;;;;3.08;1.20;;;34.30;99.90;;;;;;4993476;28;20182;-70
2021/12/25 04:17:08;;;;;;;2.65;1.33;;;34.70;99.90;;;;;;4993305;28;20593;-70
2021/12/25 04:19:36;;;;;;;6.55;2.17;;;33.90;99.90;;;;;;4994000;28;20194;-70
2021/12/25 04:22:09;;;;;;;2.55;1.23;;;34.40;99.90;;;;;;4993486;28;20178;-71
2021/12/25 04:24:41;;;;;;;3.67;0.82;;;34.50;99.90;;;;;;4993255;28;20225;-71
2021/12/25 04:27:12;;;;;;;3.55;1.15;;;34.70;99.90;;;;;;4992198;28;20244;-70
2021/12/25 04:29:49;;;;;;;6.93;1.60;;;34.50;99.90;;;;;;4992983;28;20708;-71
2021/12/25 04:49:31;;;;;;;5.22;1.05;;;33.60;99.90;;;;;;4993216;28;20186;-71
2021/12/25 05:05:22;;;;;;;3.90;1.27;;;32.80;99.90;;;;;;4993195;28;20253;-71
2021/12/25 05:07:50;;;;;;;5.65;1.27;;;32.60;99.90;;;;;;4996723;28;20178;-71
2021/12/25 05:10:17;;;;;;;5.68;1.13;;;32.90;99.90;;;;;;4996420;28;20187;-71
2021/12/25 05:12:45;;;;;;;3.78;1.23;;;33.40;99.90;;;;;;4996627;28;20621;-70
2021/12/25 05:15:13;;;;;;;7.32;1.50;;;33.30;99.90;;;;;;4996341;28;20174;-71
2021/12/25 05:17:40;;;;;;;3.00;1.00;;;33.40;99.90;;;;;;4996427;28;20221;-71
2021/12/25 05:20:09;;;;;;;3.80;1.10;;;33.70;99.90;;;;;;4978898;28;20186;-71
2021/12/25 05:22:36;;;;;;;3.28;1.10;;;32.90;99.90;;;;;;4996247;28;20229;-71
2021/12/25 05:25:05;;;;;;;2.42;0.90;;;32.90;99.90;;;;;;4996293;28;20206;-70
2021/12/25 05:27:32;;;;;;;2.67;1.00;;;32.10;99.90;;;;;;4996385;28;20545;-70
2021/12/25 05:30:00;;;;;;;2.63;1.03;;;31.80;99.90;;;;;;4995776;28;20755;-71
2021/12/25 05:32:28;;;;;;;3.40;1.30;;;31.40;99.90;;;;;;4978662;28;20252;-70
2021/12/25 05:34:55;;;;;;;3.45;1.25;;;31.20;99.90;;;;;;4996338;28;20190;-70
2021/12/25 05:37:23;;;;;;;4.63;1.47;;;30.90;99.90;;;;;;4996004;28;20182;-72
2021/12/25 05:39:51;;;;;;;3.03;1.15;;;30.70;99.90;;;;;;4996079;28;20553;-70
2021/12/25 05:42:22;;;;;;;6.90;1.33;;;30.40;99.90;;;;;;4995881;28;20234;-70
2021/12/25 05:44:51;;;;;;;3.83;1.23;;;30.30;99.90;;;;;;4996249;28;20175;-72
2021/12/25 05:47:19;;;;;;;4.10;1.50;;;30.20;99.90;;;;;;4978352;28;20201;-71
2021/12/25 05:49:47;;;;;;;6.20;1.43;;;30.00;99.90;;;;;;4995629;28;20174;-70
2021/12/25 05:52:15;;;;;;;3.97;1.20;;;29.90;99.90;;;;;;4995623;28;20219;-70
2021/12/25 05:54:43;;;;;;;5.10;1.40;;;29.80;99.90;;;;;;4995695;28;20175;-70
2021/12/25 05:57:11;;;;;;;8.27;2.07;;;29.80;99.90;;;;;;4978293;28;20546;-70
2021/12/25 05:59:39;;;;;;;2.87;0.90;;;29.70;99.90;;;;;;4995721;28;20205;-70
2021/12/25 06:02:06;;;;;;;4.70;1.50;;;29.60;99.90;;;;;;4995736;28;20253;-71
2021/12/25 06:04:38;;;;;;;5.80;1.53;;;29.50;99.90;;;;;;4995659;28;20174;-71
2021/12/25 06:07:06;;;;;;;4.90;1.40;;;29.60;99.90;;;;;;4995528;28;20198;-71
2021/12/25 06:09:34;;;;;;;5.03;1.40;;;29.60;99.90;;;;;;4995460;28;20178;-70
2021/12/25 06:12:03;;;;;;;4.73;1.40;;;29.50;99.90;;;;;;4995473;28;20237;-70
2021/12/25 06:14:31;;;;;;;4.17;1.60;;;29.30;99.90;;;;;;4977945;28;20186;-70
2021/12/25 06:16:59;;;;;;;6.17;1.43;;;29.10;99.90;;;;;;4994645;28;20179;-70
2021/12/25 06:19:28;;;;;;;3.17;1.40;;;28.90;99.90;;;;;;4994900;28;20190;-71
2021/12/25 06:21:56;;;;;;;3.50;1.50;;;28.80;99.90;;;;;;4995309;28;20306;-71
2021/12/25 06:24:25;;;;;;;7.93;1.23;;;28.80;99.90;;;;;;4995372;28;20179;-72
2021/12/25 06:26:53;;;;;;;14.17;1.60;;;28.60;99.90;;;;;;4994992;28;20651;-71
2021/12/25 06:29:22;;;;;;;5.10;1.43;;;28.60;99.90;;;;;;4994772;28;20178;-72
2021/12/25 06:31:50;;;;;;;9.47;1.70;;;28.50;99.90;;;;;;4977380;28;20280;-71
2021/12/25 06:34:19;;;;;;;2.83;1.30;;;28.60;99.90;;;;;;4995151;28;20564;-72
2021/12/25 06:36:46;;;;;;;4.97;1.60;;;28.50;99.90;;;;;;4995042;28;20549;-71
2021/12/25 06:39:16;;;;;;;6.17;1.53;;;28.40;99.90;;;;;;4995041;28;20179;-71
2021/12/25 06:41:44;;;;;;;3.93;1.20;;;28.30;99.90;;;;;;4994950;28;20179;-72
2021/12/25 06:44:12;;;;;;;5.17;1.33;;;28.20;99.90;;;;;;4977289;28;20174;-71
2021/12/25 06:46:40;;;;;;;8.37;1.20;;;28.20;99.90;;;;;;4994829;28;20217;-72
2021/12/25 06:49:07;;;;;;;2.83;1.33;;;28.30;99.90;;;;;;4994848;28;20652;-71
2021/12/25 06:51:35;;;;;;;4.03;1.13;;;28.30;99.90;;;;;;4994637;28;20542;-71
2021/12/25 06:54:04;;;;;;;3.60;1.23;;;28.20;99.90;;;;;;4994486;28;20186;-71
2021/12/25 06:56:33;;;;;;;7.30;1.60;;;27.90;99.90;;;;;;4994656;28;20198;-71
2021/12/25 06:59:00;;;;;;;5.33;1.20;;;27.80;99.90;;;;;;4994692;28;20183;-71
2021/12/25 07:01:28;;;;;;;5.50;1.50;;;27.70;99.90;;;;;;4977093;28;20274;-71
2021/12/25 07:03:56;;;;;;;6.67;1.37;;;27.70;99.90;;;;;;4994642;28;20175;-71
2021/12/25 07:06:24;;;;;;;10.53;2.27;;;27.70;99.90;;;;;;4995311;28;20213;-71
2021/12/25 07:08:52;;;;;;;5.87;1.40;;;27.60;99.90;;;;;;4997199;28;20185;-72
2021/12/25 07:11:19;;;;;;;3.27;1.50;;;27.50;99.90;;;;;;4978422;28;20619;-72
2021/12/25 07:13:49;;;;;;;4.27;1.50;;;27.50;99.90;;;;;;4994474;28;20184;-71
2021/12/25 07:16:16;;;;;;;10.70;2.00;;;27.60;99.90;;;;;;4994293;28;20224;-71
2021/12/25 07:18:45;;;;;;;7.07;1.77;;;27.60;99.90;;;;;;4994337;28;20178;-71
2021/12/25 07:21:13;;;;;;;11.17;1.87;;;27.60;99.90;;;;;;4994070;28;20262;-70
2021/12/25 07:23:41;;;;;;;6.80;2.20;;;27.60;99.90;;;;;;4994162;28;20189;-71
2021/12/25 07:26:09;;;;;;;5.87;1.23;;;27.70;99.90;;;;;;4994162;28;20222;-71
2021/12/25 07:28:37;;;;;;;4.87;1.20;;;27.70;99.90;;;;;;4993889;28;20257;-70
2021/12/25 07:31:06;;;;;;;12.37;2.47;;;27.60;99.90;;;;;;4993955;28;20312;-70
2021/12/25 07:33:36;;;;;;;5.97;1.03;;;27.50;99.90;;;;;;4993943;28;20182;-71
2021/12/25 07:36:05;;;;;;;6.37;1.80;;;27.50;99.90;;;;;;4976668;28;20706;-71
2021/12/25 07:38:33;;;;;;;5.97;1.90;;;27.30;99.90;;;;;;4994032;28;20179;-70
2021/12/25 07:41:01;;;;;;;5.87;1.50;;;27.30;99.90;;;;;;4993915;28;20264;-70
2021/12/25 07:43:28;;;;;;;5.93;1.93;;;27.20;99.90;;;;;;4994175;28;20181;-71
2021/12/25 07:45:57;;;;;;;6.33;1.43;;;27.20;99.90;;;;;;4994006;28;20207;-71
2021/12/25 07:48:26;;;;;;;6.20;1.77;;;27.20;99.90;;;;;;4993994;28;20592;-71
2021/12/25 07:50:55;;;;;;;5.63;1.50;;;27.10;99.90;;;;;;4993644;28;20265;-71
2021/12/25 07:53:23;;;;;;;5.63;1.80;;;27.10;99.90;;;;;;4993913;28;20187;-70
2021/12/25 07:55:51;;;;;;;9.37;3.33;;;27.10;99.90;;;;;;4993858;28;20178;-70
2021/12/25 07:58:19;;;;;;;8.30;4.13;;;27.10;99.90;;;;;;4993968;28;20194;-70
2021/12/25 08:00:47;;;;;;;6.90;3.00;;;27.10;99.90;;;;;;4993733;28;20217;-70
2021/12/25 08:03:18;;;;;;;8.97;2.50;;;27.10;99.90;;;;;;4993660;28;20210;-71
2021/12/25 08:05:47;;;;;;;6.17;2.30;;;27.10;99.90;;;;;;4993996;28;20218;-70
2021/12/25 08:08:15;;;;;;;4.03;1.97;;;27.10;99.90;;;;;;4993580;28;20183;-70
2021/12/25 08:10:43;;;;;;;10.37;2.00;;;27.00;99.90;;;;;;4993441;28;20186;-70
2021/12/25 08:13:13;;;;;;;8.23;2.07;;;26.90;99.90;;;;;;4993584;28;20237;-70
2021/12/25 08:15:41;;;;;;;5.67;2.00;;;26.90;99.90;;;;;;4993567;28;20267;-70
2021/12/25 08:18:10;;;;;;;7.30;2.10;;;26.80;99.90;;;;;;4993647;28;20236;-71
2021/12/25 08:20:38;;;;;;;8.20;2.57;;;26.80;99.90;;;;;;4993477;28;20561;-71
2021/12/25 08:23:07;;;;;;;9.73;2.50;;;26.80;99.90;;;;;;4993818;28;20183;-71
2021/12/25 08:25:35;;;;;;;10.20;2.27;;;26.80;99.90;;;;;;4993568;28;20198;-71
2021/12/25 08:28:03;;;;;;;5.10;1.67;;;26.80;99.90;;;;;;4993454;28;20202;-72
2021/12/25 08:30:31;;;;;;;5.13;1.77;;;26.80;99.90;;;;;;4972318;28;20604;-72
2021/12/25 08:32:59;;;;;;;7.23;2.07;;;26.70;99.90;;;;;;4974247;28;20261;-72
2021/12/25 08:35:29;;;;;;;7.23;1.60;;;26.70;99.90;;;;;;4974208;28;20185;-71
2021/12/25 08:37:57;;;;;;;11.33;2.37;;;26.70;99.90;;;;;;4974144;28;20182;-72
2021/12/25 08:40:26;;;;;;;10.40;1.83;;;26.60;99.90;;;;;;4974100;28;20187;-71
2021/12/25 08:43:00;;;;;;;7.07;2.00;;;26.60;99.90;;;;;;4977710;28;20171;-71
2021/12/25 08:48:10;;;;;;;9.23;2.13;;;26.50;99.90;;;;;;4977841;28;20629;-71
2021/12/25 08:50:39;;;;;;;10.33;2.67;;;26.50;99.90;;;;;;4977435;28;20549;-71
2021/12/25 08:53:07;;;;;;;7.03;2.33;;;26.50;99.90;;;;;;4977557;28;20258;-72
2021/12/25 08:55:35;;;;;;;6.07;2.00;;;26.50;99.90;;;;;;4992584;28;20183;-71
2021/12/25 08:58:03;;;;;;;5.43;1.83;;;26.40;99.90;;;;;;4977584;28;20538;-72
2021/12/25 09:00:31;;;;;;;10.07;2.30;;;26.40;99.90;;;;;;4976267;28;20262;-72
2021/12/25 09:02:58;;;;;;;9.40;2.37;;;26.40;99.90;;;;;;4977699;28;20203;-70
2021/12/25 09:05:26;;;;;;;9.53;2.37;;;26.40;99.90;;;;;;4977425;28;20265;-71
2021/12/25 09:07:54;;;;;;;11.67;3.10;;;26.30;99.90;;;;;;4977534;28;20195;-71
2021/12/25 09:10:22;;;;;;;9.37;2.17;;;26.30;99.90;;;;;;4977075;28;20186;-71
2021/12/25 09:12:50;;;;;;;9.47;2.63;;;26.20;99.90;;;;;;4977292;28;20179;-71
2021/12/25 09:15:19;;;;;;;8.93;2.50;;;26.30;99.90;;;;;;4977185;28;20176;-71
2021/12/25 09:17:47;;;;;;;10.50;2.10;;;26.20;99.90;;;;;;4976069;28;20203;-71
2021/12/25 09:20:17;;;;;;;12.57;2.47;;;26.20;99.90;;;;;;4977227;28;20180;-72
2021/12/25 09:22:46;;;;;;;13.90;2.57;;;26.10;99.90;;;;;;4977125;28;20222;-71
2021/12/25 09:25:14;;;;;;;10.10;2.60;;;26.00;99.90;;;;;;4976859;28;20207;-71
2021/12/25 09:27:43;;;;;;;11.90;1.60;;;25.90;99.90;;;;;;4976900;28;20527;-71
2021/12/25 09:30:12;;;;;;;11.37;2.20;;;25.90;99.90;;;;;;4984623;28;20708;-71
2021/12/25 09:32:40;;;;;;;8.03;1.93;;;25.90;99.90;;;;;;4996312;28;20175;-70
2021/12/25 09:35:08;;;;;;;11.20;2.23;;;25.80;99.90;;;;;;4996212;28;20217;-71
2021/12/25 09:37:36;;;;;;;11.93;2.03;;;25.80;99.90;;;;;;4996330;28;20640;-71
2021/12/25 09:40:06;;;;;;;7.70;1.90;;;25.70;99.90;;;;;;4996259;28;20539;-71
2021/12/25 09:42:38;;;;;;;8.47;2.60;;;25.60;99.90;;;;;;4978688;28;20189;-71
2021/12/25 09:45:07;;;;;;;11.17;2.37;;;25.60;99.90;;;;;;4996038;28;20214;-71
2021/12/25 09:47:35;;;;;;;8.27;2.27;;;25.50;99.90;;;;;;4996139;28;20262;-71
2021/12/25 09:50:04;;;;;;;6.93;1.90;;;25.50;99.90;;;;;;4995777;28;20175;-71
2021/12/25 09:52:32;;;;;;;7.97;1.70;;;25.40;99.90;;;;;;4996028;28;20270;-71
2021/12/25 09:54:59;;;;;;;10.13;1.80;;;25.40;99.90;;;;;;4996002;28;20187;-71
2021/12/25 09:57:27;;;;;;;8.90;2.00;;;25.40;99.90;;;;;;4996024;28;20646;-71
2021/12/25 09:59:55;;;;;;;10.10;2.00;;;25.30;99.90;;;;;;4995660;28;20179;-71
2021/12/25 10:02:23;;;;;;;7.83;1.97;;;25.20;99.90;;;;;;4995755;28;20265;-71
2021/12/25 10:04:56;;;;;;;9.83;2.70;;;25.20;99.90;;;;;;4995759;28;20177;-70
2021/12/25 10:07:30;;;;;;;12.23;2.57;;;25.20;99.90;;;;;;4995776;28;20193;-71
2021/12/25 10:10:07;;;;;;;12.10;2.50;;;25.10;99.90;;;;;;4995320;28;20590;-71
2021/12/25 10:12:44;;;;;;;10.00;2.03;;;25.20;99.90;;;;;;4995283;28;20648;-72
2021/12/25 10:15:21;;;;;;;10.07;2.27;;;25.20;99.90;;;;;;4995818;28;20636;-71
2021/12/25 10:17:59;;;;;;;9.70;2.30;;;25.10;99.90;;;;;;4995840;28;20181;-71
2021/12/25 10:20:29;;;;;;;14.03;2.40;;;25.10;99.90;;;;;;4995398;28;20204;-71
2021/12/25 10:23:16;;;;;;;8.40;2.30;;;25.00;99.90;;;;;;4995424;28;20206;-71
2021/12/25 10:25:53;;;;;;;8.83;2.20;;;25.00;99.90;;;;;;4995484;28;20191;-71
2021/12/25 10:28:30;;;;;;;9.77;2.17;;;24.90;99.90;;;;;;4995773;28;20213;-71
2021/12/25 10:31:16;;;;;;;5.97;2.00;;;24.90;99.90;;;;;;4994905;28;20276;-72
2021/12/25 10:33:52;;;;;;;5.63;2.00;;;24.90;99.90;;;;;;4995169;28;20257;-72
2021/12/25 10:36:34;;;;;;;7.77;2.30;;;24.90;99.90;;;;;;4995316;28;20580;-72
2021/12/25 10:39:23;;;;;;;6.10;2.03;;;24.90;99.90;;;;;;4995401;28;20182;-71
2021/12/25 10:42:09;;;;;;;10.73;2.17;;;24.80;99.90;;;;;;4977661;28;20183;-72
2021/12/25 10:44:42;;;;;;;7.60;1.87;;;24.80;99.90;;;;;;4995107;28;20202;-71
2021/12/25 10:47:14;;;;;;;7.67;2.30;;;24.80;99.90;;;;;;4995072;28;20706;-70
2021/12/25 10:49:57;;;;;;;8.77;2.03;;;24.80;99.90;;;;;;4994827;28;20535;-71
2021/12/25 10:52:33;;;;;;;6.73;1.40;;;24.80;99.90;;;;;;4994897;28;20174;-71
2021/12/25 10:55:14;;;;;;;12.17;2.60;;;24.80;99.90;;;;;;4995011;28;20515;-71
2021/12/25 10:57:43;;;;;;;9.10;2.27;;;24.60;99.90;;;;;;4994958;28;20181;-72
2021/12/25 11:00:14;;;;;;;9.60;2.20;;;24.70;99.90;;;;;;4977082;28;20241;-71
2021/12/25 11:02:43;;;;;;;8.93;2.30;;;24.60;99.90;;;;;;4994632;28;20182;-71
2021/12/25 11:05:24;;;;;;;8.13;2.03;;;24.60;99.90;;;;;;4976656;28;20241;-70
2021/12/25 11:08:15;;;;;;;8.70;2.43;;;24.60;99.90;;;;;;4994643;28;20189;-70
2021/12/25 11:10:50;;;;;;;8.40;2.10;;;24.60;99.90;;;;;;4994369;28;20171;-71
2021/12/25 11:13:28;;;;;;;7.70;1.87;;;24.60;99.90;;;;;;4994704;28;20185;-71
2021/12/25 11:16:07;;;;;;;14.57;1.90;;;24.50;99.90;;;;;;4994478;28;20654;-70
2021/12/25 11:21:31;;;;;;;12.50;2.40;;;24.40;99.90;;;;;;4994429;28;20186;-71
2021/12/25 11:24:37;;;;;;;4.40;1.90;;;24.30;99.90;;;;;;4976790;28;20194;-71
2021/12/25 11:27:07;;;;;;;9.33;2.10;;;24.40;99.90;;;;;;4985562;28;20272;-71
2021/12/25 11:29:36;;;;;;;13.63;2.27;;;24.30;99.90;;;;;;4994057;28;20209;-71
2021/12/25 11:32:08;;;;;;;8.83;1.80;;;24.20;99.90;;;;;;4994310;28;20178;-72
2021/12/25 11:34:36;;;;;;;7.20;1.83;;;24.20;99.90;;;;;;4994870;28;20316;-71
2021/12/25 11:37:05;;;;;;;12.90;2.10;;;24.20;99.90;;;;;;4994479;28;20185;-71
2021/12/25 11:39:34;;;;;;;10.33;2.00;;;24.20;99.90;;;;;;4994171;28;20185;-71
2021/12/25 11:42:07;;;;;;;10.10;1.97;;;24.20;99.90;;;;;;4993900;28;20189;-71
2021/12/25 11:44:44;;;;;;;7.80;1.63;;;24.20;99.90;;;;;;4993935;28;20316;-71
2021/12/25 11:47:32;;;;;;;9.03;1.80;;;24.20;99.90;;;;;;4994130;28;20682;-71
2021/12/25 11:50:02;;;;;;;9.20;2.33;;;24.10;99.90;;;;;;4976296;28;20553;-71
2021/12/25 11:52:38;;;;;;;15.60;5.47;;;24.00;99.90;;;;;;4994007;28;20178;-71
2021/12/25 11:58:42;;;;;;;14.07;3.30;;;23.90;99.90;;;;;;4994122;28;20236;-72
2021/12/25 12:01:32;;;;;;;11.67;2.90;;;23.90;99.90;;;;;;4993937;28;20189;-71
2021/12/25 12:04:04;;;;;;;15.37;2.67;;;23.80;99.90;;;;;;4986503;28;20531;-71
2021/12/25 12:06:47;;;;;;;12.30;2.40;;;23.80;99.90;;;;;;4993600;28;20213;-71
2021/12/25 12:09:19;;;;;;;6.60;1.63;;;23.60;99.90;;;;;;4993588;28;20240;-71
2021/12/25 12:12:29;;;;;;;10.23;2.10;;;23.60;99.90;;;;;;4993605;28;20270;-71
2021/12/25 12:15:18;;;;;;;9.53;2.33;;;23.70;99.90;;;;;;4933963;29;20188;-71
2021/12/25 12:17:47;;;;;;;10.77;2.10;;;23.80;99.90;;;;;;4937910;29;20210;-71
2021/12/25 12:20:41;;;;;;;8.07;1.73;;;23.70;99.90;;;;;;4959917;28;20246;-71
2021/12/25 12:26:09;;;;;;;7.70;2.27;;;23.60;99.90;;;;;;4992908;28;20230;-71
2021/12/25 12:28:55;;;;;;;9.03;2.07;;;23.50;99.90;;;;;;4997625;28;20182;-71
2021/12/25 12:31:46;;;;;;;12.37;2.30;;;23.50;99.90;;;;;;4997151;28;20238;-71
2021/12/25 12:34:41;;;;;;;8.47;2.90;;;23.50;99.90;;;;;;4997540;28;20190;-71
2021/12/25 12:37:14;;;;;;;9.70;2.53;;;23.40;99.90;;;;;;4997391;28;20182;-71
2021/12/25 12:39:44;;;;;;;13.27;3.30;;;23.20;99.90;;;;;;4997341;28;20184;-71
2021/12/25 12:42:14;;;;;;;9.53;2.60;;;23.20;99.90;;;;;;4997158;28;20197;-71
2021/12/25 12:44:41;;;;;;;10.77;1.90;;;23.20;99.90;;;;;;4997283;28;20177;-71
2021/12/25 12:47:18;;;;;;;8.67;2.30;;;23.10;99.90;;;;;;4997101;28;20305;-71
2021/12/25 12:49:49;;;;;;;8.30;2.20;;;23.10;99.90;;;;;;4997379;28;20184;-71
2021/12/25 12:52:21;;;;;;;9.97;2.63;;;23.10;99.90;;;;;;4996945;28;20186;-71
2021/12/25 12:55:24;;;;;;;5.53;1.73;;;23.10;99.90;;;;;;4979615;28;20189;-72
2021/12/25 12:58:11;;;;;;;10.47;2.33;;;23.00;99.90;;;;;;4977759;28;20205;-71
2021/12/25 13:00:42;;;;;;;6.87;1.70;;;23.00;99.90;;;;;;4997029;28;20188;-71
2021/12/25 13:03:10;;;;;;;6.87;2.03;;;23.00;99.90;;;;;;4979448;28;20193;-72
2021/12/25 13:05:41;;;;;;;10.63;2.33;;;23.00;99.90;;;;;;4979141;28;20297;-71
2021/12/25 13:08:22;;;;;;;7.90;2.60;;;22.90;99.90;;;;;;4996954;28;20579;-71
2021/12/25 13:10:51;;;;;;;12.73;2.47;;;22.90;99.90;;;;;;4979218;28;20182;-70
2021/12/25 13:13:36;;;;;;;13.23;2.53;;;22.90;99.90;;;;;;4996727;28;20194;-71
2021/12/25 13:16:14;;;;;;;9.07;2.80;;;22.90;99.90;;;;;;4996764;28;20178;-70
2021/12/25 13:18:49;;;;;;;4.33;1.77;;;22.80;99.90;;;;;;4996654;28;20189;-70
2021/12/25 13:21:23;;;;;;;7.97;2.83;;;22.80;99.90;;;;;;4997076;28;20175;-71
2021/12/25 13:23:56;;;;;;;7.93;2.53;;;22.80;99.90;;;;;;4996780;28;20170;-70
2021/12/25 13:26:31;;;;;;;11.03;2.60;;;22.80;99.90;;;;;;4996085;28;20308;-70
2021/12/25 13:28:59;;;;;;;8.20;1.90;;;22.80;99.90;;;;;;4996684;28;20170;-71
2021/12/25 13:31:30;;;;;;;7.27;2.23;;;22.80;99.90;;;;;;4996211;28;20253;-71
2021/12/25 13:34:13;;;;;;;6.33;1.90;;;22.70;99.90;;;;;;4996335;28;20171;-71
2021/12/25 13:36:46;;;;;;;8.77;2.20;;;22.70;99.90;;;;;;4996260;28;20187;-71
2021/12/25 13:39:17;;;;;;;13.07;2.80;;;22.60;99.90;;;;;;4978623;28;20580;-71
2021/12/25 13:41:52;;;;;;;10.33;2.30;;;22.70;99.90;;;;;;4996236;28;20232;-71
2021/12/25 13:44:21;;;;;;;12.83;2.07;;;22.70;99.90;;;;;;4996463;28;20178;-71
2021/12/25 13:46:52;;;;;;;8.00;2.13;;;22.70;99.90;;;;;;4978437;28;20597;-71
2021/12/25 13:49:47;;;;;;;6.13;1.93;;;22.70;99.90;;;;;;4996458;28;20178;-69
2021/12/25 13:52:34;;;;;;;10.57;2.70;;;22.70;99.90;;;;;;4994170;28;20206;-70
2021/12/25 13:55:21;;;;;;;8.30;2.47;;;22.60;99.90;;;;;;5005233;28;20515;-71
2021/12/25 13:58:09;;;;;;;8.57;2.10;;;22.50;99.90;;;;;;5004600;28;20189;-71
2021/12/25 14:00:44;;;;;;;7.53;2.00;;;22.50;99.90;;;;;;4987932;28;20190;-70
2021/12/25 14:03:14;;;;;;;9.53;1.90;;;22.50;99.90;;;;;;4995755;28;20185;-69
2021/12/25 14:05:45;;;;;;;8.07;1.60;;;22.50;99.90;;;;;;4995607;28;20203;-70
2021/12/25 14:08:13;;;;;;;6.43;1.87;;;22.50;99.90;;;;;;4978052;28;20320;-69
2021/12/25 14:10:43;;;;;;;9.20;1.87;;;22.60;99.90;;;;;;4998974;28;20182;-70
2021/12/25 14:13:21;;;;;;;10.57;1.80;;;22.60;99.90;;;;;;5015355;28;20272;-69
2021/12/25 14:15:54;;;;;;;11.50;1.90;;;22.50;99.90;;;;;;5006294;28;20218;-69
2021/12/25 14:18:27;;;;;;;10.23;2.00;;;22.50;99.90;;;;;;5015144;28;20189;-69
2021/12/25 14:20:54;;;;;;;9.87;2.07;;;22.50;99.90;;;;;;5010093;28;20204;-70
2021/12/25 14:23:22;;;;;;;9.47;2.10;;;22.50;99.90;;;;;;4995388;28;20183;-70
2021/12/25 14:26:00;;;;;;;7.80;1.53;;;22.40;99.90;;;;;;5005553;28;20213;-69
2021/12/25 14:28:35;;;;;;;8.27;1.73;;;22.40;99.90;;;;;;5014847;28;20288;-69
2021/12/25 14:31:04;;;;;;;7.00;1.60;;;22.30;99.90;;;;;;5014608;28;20234;-71
2021/12/25 14:33:34;;;;;;;3.33;1.27;;;22.30;99.90;;;;;;5014913;28;20181;-71